Time;durP1;ratioP1;P1;durP2;ratioP2;P2;SDS_P1;SDS_P2;PMS_P1;PMS_P2;Temp;Humidity;BMP_temperature;BMP_pressure;BME280_temperature;BME280_humidity;BME280_pressure;Samples;Min_cycle;Max_cycle;Signal;HPM_P1;HPM_P2
2022/07/24 00:00:31;;;;;;;1.98;1.05;;;16.30;99.90;;;;;;5044529;28;20052;-70
2022/07/24 00:02:57;;;;;;;1.58;0.90;;;16.30;99.90;;;;;;5048375;28;20446;-70
2022/07/24 00:05:22;;;;;;;2.67;1.42;;;16.30;99.90;;;;;;5051423;28;20398;-70
2022/07/24 00:07:49;;;;;;;2.78;1.52;;;16.20;99.90;;;;;;5047705;28;20044;-70
2022/07/24 00:10:15;;;;;;;2.03;1.15;;;16.20;99.90;;;;;;5049016;28;20045;-70
2022/07/24 00:12:40;;;;;;;2.85;1.33;;;16.20;99.90;;;;;;5046701;28;20055;-70
2022/07/24 00:15:07;;;;;;;2.30;1.00;;;16.20;99.90;;;;;;5041768;28;20782;-70
2022/07/24 00:17:33;;;;;;;1.52;0.80;;;16.20;99.90;;;;;;5042061;28;20048;-70
2022/07/24 00:19:59;;;;;;;2.35;1.35;;;16.20;99.90;;;;;;5043965;28;20033;-70
2022/07/24 00:22:24;;;;;;;1.92;1.23;;;16.10;99.90;;;;;;5047864;28;20539;-70
2022/07/24 00:24:50;;;;;;;2.30;1.00;;;16.10;99.90;;;;;;5047164;28;20048;-70
2022/07/24 00:27:16;;;;;;;3.30;1.60;;;16.10;99.90;;;;;;5043059;28;20044;-70
2022/07/24 00:29:42;;;;;;;1.65;1.00;;;16.00;99.90;;;;;;5047767;28;20036;-70
2022/07/24 00:32:08;;;;;;;3.13;1.48;;;16.10;99.90;;;;;;5045830;28;20094;-70
2022/07/24 00:34:34;;;;;;;2.15;1.10;;;16.10;99.90;;;;;;5047982;28;20486;-70
2022/07/24 00:36:59;;;;;;;1.75;1.00;;;16.00;99.90;;;;;;5045174;28;20033;-70
2022/07/24 00:39:25;;;;;;;2.38;1.08;;;16.00;99.90;;;;;;5059598;28;20446;-70
2022/07/24 00:41:52;;;;;;;2.22;1.30;;;16.00;99.90;;;;;;5043130;28;20029;-70
2022/07/24 00:44:19;;;;;;;1.77;1.02;;;16.00;99.90;;;;;;5047853;28;20033;-70
2022/07/24 00:46:45;;;;;;;4.55;1.75;;;16.00;99.90;;;;;;5039289;28;20043;-70
2022/07/24 00:49:13;;;;;;;2.30;1.23;;;16.00;99.90;;;;;;5040840;28;20082;-70
2022/07/24 00:51:41;;;;;;;2.08;1.13;;;16.00;99.90;;;;;;5047922;28;20119;-70
2022/07/24 00:54:08;;;;;;;2.67;1.27;;;16.00;99.90;;;;;;5046814;28;20490;-70
2022/07/24 00:56:33;;;;;;;2.20;1.20;;;16.00;99.90;;;;;;5045738;28;20048;-70
2022/07/24 00:59:00;;;;;;;2.53;1.45;;;16.00;99.90;;;;;;5041797;28;20037;-70
2022/07/24 01:01:26;;;;;;;1.88;1.20;;;15.90;99.90;;;;;;5043507;28;20037;-70
2022/07/24 01:03:52;;;;;;;3.10;1.80;;;15.90;99.90;;;;;;5038550;28;20037;-70
2022/07/24 01:06:19;;;;;;;2.55;1.27;;;15.90;99.90;;;;;;5041850;28;20494;-71
2022/07/24 01:08:45;;;;;;;2.25;1.23;;;15.90;99.90;;;;;;5037957;28;20084;-70
2022/07/24 01:11:12;;;;;;;2.83;1.48;;;15.90;99.90;;;;;;5042696;28;20068;-70
2022/07/24 01:13:38;;;;;;;3.28;1.23;;;15.90;99.90;;;;;;5041647;28;20211;-70
2022/07/24 01:16:04;;;;;;;4.20;1.40;;;15.90;99.90;;;;;;5044188;28;20151;-70
2022/07/24 01:18:30;;;;;;;2.20;1.23;;;15.90;99.90;;;;;;5039598;28;20713;-70
2022/07/24 01:20:55;;;;;;;3.20;1.55;;;15.90;99.90;;;;;;5038512;28;20029;-70
2022/07/24 01:23:22;;;;;;;1.73;0.93;;;15.90;99.90;;;;;;5041688;28;20045;-70
2022/07/24 01:25:48;;;;;;;2.92;1.30;;;15.90;99.90;;;;;;5045874;28;20043;-70
2022/07/24 01:28:14;;;;;;;2.47;1.60;;;15.90;99.90;;;;;;5045677;28;20041;-70
2022/07/24 01:30:40;;;;;;;2.53;1.30;;;15.90;99.90;;;;;;5039646;28;20045;-70
2022/07/24 01:33:05;;;;;;;2.60;1.27;;;15.90;99.90;;;;;;5043313;28;20033;-70
2022/07/24 01:35:31;;;;;;;2.33;1.02;;;15.90;99.90;;;;;;5043145;28;20392;-70
2022/07/24 01:37:57;;;;;;;2.00;1.30;;;15.90;99.90;;;;;;5040913;28;20732;-70
2022/07/24 01:40:23;;;;;;;2.92;1.58;;;15.90;99.90;;;;;;5042047;28;20535;-70
2022/07/24 01:42:49;;;;;;;3.83;1.20;;;15.90;99.90;;;;;;5028397;28;20565;-70
2022/07/24 01:45:15;;;;;;;1.98;0.88;;;15.80;99.90;;;;;;5052590;28;20533;-70
2022/07/24 01:47:43;;;;;;;1.50;0.88;;;15.90;99.90;;;;;;5052822;28;20055;-70
2022/07/24 01:50:09;;;;;;;1.80;1.05;;;15.80;99.90;;;;;;5043036;28;20514;-70
2022/07/24 01:52:35;;;;;;;2.83;1.30;;;15.90;99.90;;;;;;5030665;28;20041;-70
2022/07/24 01:55:00;;;;;;;2.80;1.52;;;15.90;99.90;;;;;;5033161;28;20064;-70
2022/07/24 01:57:26;;;;;;;2.08;1.10;;;15.90;99.90;;;;;;5048871;28;20124;-70
2022/07/24 01:59:52;;;;;;;2.15;1.30;;;15.80;99.90;;;;;;5044013;28;20047;-70
2022/07/24 02:02:17;;;;;;;3.42;1.42;;;15.80;99.90;;;;;;5047268;28;20112;-70
2022/07/24 02:04:43;;;;;;;2.83;1.30;;;15.80;99.90;;;;;;5029873;28;20047;-70
2022/07/24 02:07:08;;;;;;;2.67;1.33;;;15.80;99.90;;;;;;5049062;28;20032;-70
2022/07/24 02:09:34;;;;;;;1.80;1.02;;;15.80;99.90;;;;;;5057187;28;20044;-70
2022/07/24 02:12:00;;;;;;;2.90;1.20;;;15.80;99.90;;;;;;5046613;28;20524;-70
2022/07/24 02:14:25;;;;;;;2.20;1.30;;;15.80;99.90;;;;;;5050675;28;20053;-70
2022/07/24 02:16:51;;;;;;;2.30;1.40;;;15.80;99.90;;;;;;5029531;28;20047;-70
2022/07/24 02:19:16;;;;;;;2.70;1.45;;;15.80;99.90;;;;;;5051186;28;20526;-70
2022/07/24 02:21:42;;;;;;;2.75;1.33;;;15.80;99.90;;;;;;5042708;28;20037;-70
2022/07/24 02:24:07;;;;;;;1.95;1.13;;;15.80;99.90;;;;;;5066875;28;20037;-70
2022/07/24 02:26:34;;;;;;;2.65;1.40;;;15.80;99.90;;;;;;5031144;28;20132;-70
2022/07/24 02:29:00;;;;;;;2.45;1.38;;;15.80;99.90;;;;;;5048827;28;20121;-70
2022/07/24 02:31:26;;;;;;;3.20;1.67;;;15.80;99.90;;;;;;5042138;28;20048;-70
2022/07/24 02:33:51;;;;;;;3.00;1.23;;;15.80;99.90;;;;;;5037398;28;20052;-70
2022/07/24 02:36:17;;;;;;;4.53;1.40;;;15.70;99.90;;;;;;5052278;28;20051;-70
2022/07/24 02:38:43;;;;;;;1.95;1.08;;;15.80;99.90;;;;;;5052464;28;20053;-70
2022/07/24 02:41:09;;;;;;;2.63;1.40;;;15.70;99.90;;;;;;5037071;28;20037;-70
2022/07/24 02:43:34;;;;;;;3.92;1.90;;;15.70;99.90;;;;;;5037939;28;20037;-70
2022/07/24 02:46:00;;;;;;;2.60;1.50;;;15.70;99.90;;;;;;5050010;28;20072;-70
2022/07/24 02:48:26;;;;;;;6.72;1.98;;;15.70;99.90;;;;;;5050453;28;20048;-70
2022/07/24 02:50:52;;;;;;;6.47;1.95;;;15.70;99.90;;;;;;5067047;28;20053;-70
2022/07/24 02:53:17;;;;;;;1.98;1.38;;;15.70;99.90;;;;;;5048274;28;20426;-70
2022/07/24 02:55:43;;;;;;;2.65;1.38;;;15.70;99.90;;;;;;5043391;28;20049;-70
2022/07/24 02:58:09;;;;;;;3.67;1.40;;;15.70;99.90;;;;;;5038643;28;20041;-70
2022/07/24 03:00:35;;;;;;;2.70;1.55;;;15.80;99.90;;;;;;5044477;28;20106;-70
2022/07/24 03:03:01;;;;;;;3.35;1.80;;;15.70;99.90;;;;;;5021705;28;20519;-70
2022/07/24 03:05:27;;;;;;;2.42;1.42;;;15.70;99.90;;;;;;5042333;28;20389;-70
2022/07/24 03:07:52;;;;;;;2.83;1.48;;;15.80;99.90;;;;;;5047829;28;20036;-70
2022/07/24 03:10:18;;;;;;;3.38;1.90;;;15.70;99.90;;;;;;5045230;28;20041;-70
2022/07/24 03:12:44;;;;;;;3.00;1.70;;;15.80;99.90;;;;;;5047477;28;20667;-70
2022/07/24 03:15:12;;;;;;;2.85;1.52;;;15.80;99.90;;;;;;5044399;28;20803;-70
2022/07/24 03:17:38;;;;;;;3.40;1.67;;;15.80;99.90;;;;;;5045650;28;20044;-70
2022/07/24 03:20:04;;;;;;;3.10;1.55;;;15.70;99.90;;;;;;5047196;28;20633;-70
2022/07/24 03:22:30;;;;;;;4.03;1.98;;;15.80;99.90;;;;;;5040373;28;20095;-70
2022/07/24 03:24:56;;;;;;;2.20;1.40;;;15.80;99.90;;;;;;5047104;28;20397;-70
2022/07/24 03:27:21;;;;;;;3.17;1.63;;;15.80;99.90;;;;;;5041295;28;20493;-70
2022/07/24 03:29:47;;;;;;;4.53;1.80;;;15.80;99.90;;;;;;5042474;28;20036;-70
2022/07/24 03:32:12;;;;;;;2.60;1.60;;;15.80;99.90;;;;;;5047228;28;20037;-70
2022/07/24 03:34:38;;;;;;;3.40;1.80;;;15.80;99.90;;;;;;5049523;28;20044;-70
2022/07/24 03:37:04;;;;;;;2.75;1.42;;;15.80;99.90;;;;;;5042852;28;20030;-70
2022/07/24 03:39:29;;;;;;;3.53;1.70;;;15.80;99.90;;;;;;5046417;28;20047;-70
2022/07/24 03:41:55;;;;;;;3.38;1.90;;;15.80;99.90;;;;;;5047911;28;20047;-70
2022/07/24 03:44:21;;;;;;;2.72;1.33;;;15.80;99.90;;;;;;5046501;28;20493;-70
2022/07/24 03:46:46;;;;;;;3.63;1.73;;;15.80;99.90;;;;;;5045567;28;20064;-70
2022/07/24 03:49:12;;;;;;;4.05;1.52;;;15.80;99.90;;;;;;5042212;28;20045;-70
2022/07/24 03:51:38;;;;;;;4.13;2.10;;;15.90;99.90;;;;;;5046915;28;20603;-70
2022/07/24 03:54:03;;;;;;;3.80;2.00;;;15.80;99.90;;;;;;5042160;28;20036;-70
2022/07/24 03:56:29;;;;;;;2.50;1.35;;;15.80;99.90;;;;;;5044457;28;20409;-70
2022/07/24 03:58:55;;;;;;;3.10;1.60;;;15.90;99.90;;;;;;5029093;28;20038;-70
2022/07/24 04:01:21;;;;;;;2.38;1.50;;;15.90;99.90;;;;;;5046332;28;20037;-70
2022/07/24 04:03:47;;;;;;;4.05;1.90;;;15.80;99.90;;;;;;5041830;28;20041;-70
2022/07/24 04:06:12;;;;;;;4.32;2.13;;;15.90;99.90;;;;;;5062303;28;20581;-70
2022/07/24 04:08:38;;;;;;;3.13;1.42;;;15.90;99.90;;;;;;5045557;28;20053;-70
2022/07/24 04:11:04;;;;;;;2.45;1.55;;;15.80;99.90;;;;;;5045114;28;20418;-70
2022/07/24 04:13:30;;;;;;;3.55;1.88;;;15.90;99.90;;;;;;5045903;28;20057;-70
2022/07/24 04:15:57;;;;;;;2.60;1.30;;;15.90;99.90;;;;;;5041028;28;20128;-71
2022/07/24 04:18:23;;;;;;;3.90;1.73;;;15.90;99.90;;;;;;5045358;28;20041;-70
2022/07/24 04:20:49;;;;;;;3.65;1.63;;;15.90;99.90;;;;;;5028968;28;20638;-70
2022/07/24 04:23:15;;;;;;;3.83;1.55;;;15.80;99.90;;;;;;5045425;28;20049;-70
2022/07/24 04:25:41;;;;;;;3.88;1.65;;;15.90;99.90;;;;;;5041606;28;20041;-70
2022/07/24 04:28:07;;;;;;;4.75;1.88;;;15.90;99.90;;;;;;5042928;28;20052;-71
2022/07/24 04:30:33;;;;;;;3.33;1.60;;;15.90;99.90;;;;;;5031829;28;20048;-70
2022/07/24 04:32:58;;;;;;;3.97;1.88;;;15.90;99.90;;;;;;5047126;28;20044;-70
2022/07/24 04:35:24;;;;;;;2.90;1.58;;;15.80;99.90;;;;;;5045353;28;20044;-70
2022/07/24 04:37:50;;;;;;;2.53;1.38;;;15.90;99.90;;;;;;5043307;28;20045;-70
2022/07/24 04:40:16;;;;;;;4.05;1.85;;;15.90;99.90;;;;;;5046912;28;20083;-70
2022/07/24 04:42:42;;;;;;;3.05;1.67;;;15.90;99.90;;;;;;5040650;28;20664;-70
2022/07/24 04:45:09;;;;;;;2.40;1.40;;;15.90;99.90;;;;;;5037045;28;20033;-70
2022/07/24 04:47:35;;;;;;;2.60;1.35;;;16.00;99.90;;;;;;5026418;28;20052;-70
2022/07/24 04:50:01;;;;;;;3.15;1.65;;;16.00;99.90;;;;;;5028810;28;20686;-70
2022/07/24 04:52:27;;;;;;;2.88;1.63;;;16.00;99.90;;;;;;5026166;28;20431;-70
2022/07/24 04:54:52;;;;;;;2.95;1.50;;;16.00;99.90;;;;;;5025032;28;20033;-70
2022/07/24 04:57:18;;;;;;;2.83;1.80;;;16.10;99.90;;;;;;5024429;28;20051;-70
2022/07/24 04:59:44;;;;;;;3.20;1.48;;;16.10;99.90;;;;;;5040904;28;20048;-70
2022/07/24 05:02:10;;;;;;;2.47;1.38;;;16.10;99.90;;;;;;5040574;28;20421;-70
2022/07/24 05:04:35;;;;;;;3.30;1.42;;;16.20;99.90;;;;;;5035235;28;20037;-70
2022/07/24 05:07:02;;;;;;;2.85;1.42;;;16.20;99.90;;;;;;5025364;28;20319;-70
2022/07/24 05:09:28;;;;;;;2.55;1.40;;;16.20;99.90;;;;;;5040110;28;20071;-70
2022/07/24 05:11:54;;;;;;;3.17;1.50;;;16.30;99.90;;;;;;5043803;28;20064;-71
2022/07/24 05:14:20;;;;;;;2.78;1.58;;;16.30;99.90;;;;;;5043245;28;20057;-70
2022/07/24 05:16:45;;;;;;;4.05;1.52;;;16.30;99.90;;;;;;5027607;28;20717;-70
2022/07/24 05:19:11;;;;;;;3.67;1.90;;;16.30;99.90;;;;;;5028007;28;20029;-70
2022/07/24 05:21:37;;;;;;;3.00;1.40;;;16.30;99.90;;;;;;5046504;28;20036;-71
2022/07/24 05:24:02;;;;;;;2.40;1.25;;;16.30;99.90;;;;;;5043437;28;20036;-70
2022/07/24 05:26:31;;;;;;;3.30;2.05;;;16.30;99.90;;;;;;5044485;28;20508;-70
2022/07/24 05:29:05;;;;;;;2.80;1.60;;;16.30;99.90;;;;;;5039346;28;20049;-70
2022/07/24 05:31:31;;;;;;;4.40;2.63;;;16.40;99.90;;;;;;5043073;28;20040;-71
2022/07/24 05:33:58;;;;;;;3.10;1.45;;;16.40;99.90;;;;;;5044525;28;20474;-71
2022/07/24 05:36:24;;;;;;;2.88;1.73;;;16.50;99.90;;;;;;5043431;28;20048;-70
2022/07/24 05:38:50;;;;;;;2.80;1.40;;;16.60;99.90;;;;;;5034468;28;20045;-71
2022/07/24 05:41:15;;;;;;;5.20;2.08;;;16.70;99.90;;;;;;5032597;28;20083;-71
2022/07/24 05:43:41;;;;;;;3.13;1.58;;;16.70;99.90;;;;;;5024669;28;20041;-71
2022/07/24 05:46:07;;;;;;;3.35;1.80;;;16.90;99.90;;;;;;5029370;28;20493;-70
2022/07/24 05:48:33;;;;;;;4.18;2.47;;;16.90;99.90;;;;;;5043594;28;20040;-71
2022/07/24 05:50:59;;;;;;;2.97;1.73;;;16.90;99.90;;;;;;5043292;28;20037;-70
2022/07/24 05:53:24;;;;;;;3.50;1.95;;;16.90;99.90;;;;;;5039398;28;20464;-70
2022/07/24 05:55:50;;;;;;;3.55;1.92;;;17.00;99.90;;;;;;5042571;28;20048;-67
2022/07/24 05:58:17;;;;;;;3.33;1.80;;;17.00;99.90;;;;;;5041295;28;20059;-71
2022/07/24 06:00:43;;;;;;;3.13;1.73;;;17.20;99.90;;;;;;5037818;28;20044;-69
2022/07/24 06:03:08;;;;;;;5.68;2.10;;;17.30;99.90;;;;;;5041927;28;20033;-70
2022/07/24 06:05:34;;;;;;;6.97;2.25;;;17.40;99.90;;;;;;5037383;28;20044;-70
2022/07/24 06:08:00;;;;;;;4.68;2.65;;;17.50;99.90;;;;;;5021369;28;20560;-71
2022/07/24 06:10:26;;;;;;;6.03;2.03;;;17.60;99.90;;;;;;5035177;28;20884;-70
2022/07/24 06:12:51;;;;;;;4.47;2.47;;;17.60;99.90;;;;;;5043884;28;20091;-71
2022/07/24 06:15:17;;;;;;;5.07;2.17;;;17.60;99.90;;;;;;5033931;28;20056;-71
2022/07/24 06:17:42;;;;;;;4.72;2.35;;;17.60;99.90;;;;;;5040540;28;20072;-71
2022/07/24 06:20:12;;;;;;;4.30;2.20;;;17.60;99.90;;;;;;5042761;28;20033;-70
2022/07/24 06:22:38;;;;;;;4.65;2.50;;;17.50;99.90;;;;;;5041178;28;20059;-71
2022/07/24 06:25:05;;;;;;;3.00;2.15;;;17.50;99.90;;;;;;5036686;28;20045;-71
2022/07/24 06:27:30;;;;;;;5.43;2.55;;;17.50;99.90;;;;;;5039401;28;20098;-71
2022/07/24 06:29:56;;;;;;;5.20;2.50;;;17.60;99.90;;;;;;5043288;28;20060;-71
2022/07/24 06:32:21;;;;;;;4.70;2.50;;;17.60;99.90;;;;;;5043385;28;20056;-71
2022/07/24 06:34:47;;;;;;;5.15;2.70;;;17.80;99.90;;;;;;5041066;28;20040;-70
2022/07/24 06:37:13;;;;;;;5.82;2.70;;;18.30;99.90;;;;;;5043460;28;20514;-71
2022/07/24 06:39:38;;;;;;;6.47;2.97;;;19.20;99.90;;;;;;5042477;28;20060;-71
2022/07/24 06:42:04;;;;;;;5.32;2.80;;;20.30;99.90;;;;;;5038916;28;20094;-71
2022/07/24 06:44:30;;;;;;;5.25;3.00;;;21.30;99.40;;;;;;5056282;28;20067;-71
2022/07/24 06:46:56;;;;;;;6.82;3.58;;;21.80;97.70;;;;;;5041119;28;20068;-71
2022/07/24 06:49:22;;;;;;;5.90;2.97;;;22.10;97.10;;;;;;5039989;28;20667;-72
2022/07/24 06:51:48;;;;;;;5.05;2.92;;;22.10;97.10;;;;;;5044790;28;20048;-70
2022/07/24 06:54:14;;;;;;;5.13;3.28;;;22.00;97.80;;;;;;5044003;28;20430;-70
2022/07/24 06:56:39;;;;;;;6.32;3.42;;;22.00;98.00;;;;;;5026099;28;20036;-71
2022/07/24 06:59:05;;;;;;;4.88;2.72;;;22.00;98.30;;;;;;5040550;28;20040;-70
2022/07/24 07:01:30;;;;;;;5.55;3.17;;;21.70;99.10;;;;;;5038619;28;20040;-70
2022/07/24 07:03:56;;;;;;;7.88;2.88;;;21.60;99.70;;;;;;5040982;28;20040;-70
2022/07/24 07:06:22;;;;;;;4.82;2.95;;;21.50;99.60;;;;;;5041607;28;20052;-70
2022/07/24 07:08:47;;;;;;;6.65;3.40;;;21.30;99.90;;;;;;5027034;28;20044;-70
2022/07/24 07:11:13;;;;;;;6.35;3.42;;;21.10;99.90;;;;;;5049182;28;20048;-70
2022/07/24 07:13:39;;;;;;;5.45;3.17;;;20.90;99.90;;;;;;5043272;28;21040;-70
2022/07/24 07:16:05;;;;;;;6.63;3.40;;;20.80;99.90;;;;;;5040205;28;20174;-70
2022/07/24 07:18:30;;;;;;;6.63;3.58;;;20.70;99.90;;;;;;5049207;28;20166;-71
2022/07/24 07:20:56;;;;;;;5.65;3.33;;;20.60;99.90;;;;;;5048236;28;20061;-70
2022/07/24 07:23:23;;;;;;;9.77;4.00;;;20.50;99.90;;;;;;5047945;28;20445;-70
2022/07/24 07:25:49;;;;;;;7.18;3.58;;;20.50;99.90;;;;;;5030494;28;20636;-70
2022/07/24 07:28:15;;;;;;;8.13;4.20;;;20.50;99.90;;;;;;5048122;28;20036;-71
2022/07/24 07:30:41;;;;;;;7.40;3.83;;;20.40;99.90;;;;;;5049255;28;20099;-71
2022/07/24 07:33:06;;;;;;;7.47;3.97;;;20.40;99.90;;;;;;5035725;28;20045;-71
2022/07/24 07:35:32;;;;;;;6.63;3.83;;;20.40;99.90;;;;;;5045244;28;20048;-70
2022/07/24 07:37:58;;;;;;;6.60;3.25;;;20.50;99.90;;;;;;5041683;28;20033;-70
2022/07/24 07:40:25;;;;;;;7.22;4.03;;;20.50;99.90;;;;;;5042990;28;20041;-70
2022/07/24 07:42:50;;;;;;;8.48;3.95;;;20.50;99.90;;;;;;5041609;28;20067;-70
2022/07/24 07:45:16;;;;;;;8.98;4.10;;;20.60;99.90;;;;;;5047976;28;20069;-70
2022/07/24 07:47:42;;;;;;;9.45;4.70;;;20.80;99.90;;;;;;5044412;28;20045;-70
2022/07/24 07:50:08;;;;;;;7.85;4.18;;;20.80;99.90;;;;;;5048734;28;20044;-71
2022/07/24 07:52:34;;;;;;;7.45;3.40;;;21.00;99.90;;;;;;5040760;28;20040;-70
2022/07/24 07:55:00;;;;;;;9.85;4.20;;;21.10;99.90;;;;;;5040910;28;20105;-70
2022/07/24 07:57:26;;;;;;;5.75;3.00;;;21.10;99.90;;;;;;5037602;28;20048;-70
2022/07/24 07:59:51;;;;;;;7.53;4.03;;;21.20;99.90;;;;;;5042352;28;20052;-70
2022/07/24 08:02:17;;;;;;;6.55;3.50;;;21.20;99.90;;;;;;5049074;28;20041;-70
2022/07/24 08:04:43;;;;;;;5.55;3.25;;;21.10;99.90;;;;;;5047915;28;20375;-71
2022/07/24 08:07:08;;;;;;;6.90;3.33;;;21.10;99.90;;;;;;5048205;28;20033;-71
2022/07/24 08:09:34;;;;;;;7.28;3.58;;;21.10;99.90;;;;;;5047367;28;20045;-71
2022/07/24 08:11:59;;;;;;;3.88;2.20;;;21.10;99.90;;;;;;5047852;28;20040;-70
2022/07/24 08:14:25;;;;;;;4.60;2.60;;;21.20;99.90;;;;;;5046344;28;20057;-70
2022/07/24 08:16:51;;;;;;;5.05;2.65;;;21.20;99.70;;;;;;5040808;28;20483;-71
2022/07/24 08:19:16;;;;;;;4.40;2.20;;;21.20;99.50;;;;;;5044894;28;20045;-71
2022/07/24 08:21:42;;;;;;;4.05;2.30;;;21.30;99.10;;;;;;5044987;28;20044;-70
2022/07/24 08:24:08;;;;;;;4.85;2.17;;;21.30;98.80;;;;;;5039568;28;20121;-70
2022/07/24 08:26:33;;;;;;;3.00;1.77;;;21.40;98.40;;;;;;5045183;28;20064;-70
2022/07/24 08:28:59;;;;;;;3.63;1.92;;;21.50;98.20;;;;;;5046190;28;20032;-70
2022/07/24 08:31:26;;;;;;;3.50;1.67;;;21.50;98.10;;;;;;5043339;28;20159;-70
2022/07/24 08:33:52;;;;;;;4.88;2.15;;;21.60;98.00;;;;;;5039493;28;20041;-70
2022/07/24 08:36:17;;;;;;;3.58;2.00;;;21.70;97.50;;;;;;5042553;28;20051;-70
2022/07/24 08:38:43;;;;;;;2.90;1.52;;;21.90;97.40;;;;;;5039866;28;20037;-71
2022/07/24 08:41:09;;;;;;;3.40;1.55;;;21.90;97.10;;;;;;5042912;28;20032;-71
2022/07/24 08:43:34;;;;;;;3.17;1.80;;;22.10;96.80;;;;;;5045115;28;20503;-70
2022/07/24 08:46:02;;;;;;;2.75;1.50;;;22.20;96.60;;;;;;5041946;28;20048;-70
2022/07/24 08:48:29;;;;;;;2.58;1.40;;;22.40;96.10;;;;;;5017431;28;20055;-71
2022/07/24 08:50:55;;;;;;;3.17;1.75;;;22.60;95.80;;;;;;5021150;28;20044;-70
2022/07/24 08:53:22;;;;;;;2.58;1.35;;;22.60;96.00;;;;;;5038520;28;20048;-70
2022/07/24 08:55:48;;;;;;;2.55;1.40;;;22.70;95.70;;;;;;5046430;28;20049;-70
2022/07/24 08:58:14;;;;;;;2.30;1.27;;;22.70;95.70;;;;;;5041132;28;20507;-70
2022/07/24 09:00:41;;;;;;;4.30;1.48;;;22.60;95.60;;;;;;5014521;28;20044;-70
2022/07/24 09:03:06;;;;;;;3.60;1.63;;;22.60;95.40;;;;;;5033847;28;20037;-70
2022/07/24 09:05:34;;;;;;;2.63;1.23;;;22.50;95.50;;;;;;5027362;28;20056;-70
2022/07/24 09:08:08;;;;;;;3.38;1.23;;;22.50;95.70;;;;;;5060302;28;20061;-70
2022/07/24 09:10:33;;;;;;;2.30;1.23;;;22.40;95.50;;;;;;5029292;28;20491;-72
2022/07/24 09:13:15;;;;;;;2.38;1.00;;;22.40;96.20;;;;;;5044404;28;20047;-71
2022/07/24 09:15:46;;;;;;;2.55;1.30;;;22.40;95.80;;;;;;5046615;28;20044;-70
2022/07/24 09:18:29;;;;;;;2.58;1.20;;;22.40;96.30;;;;;;5046602;28;20052;-70
2022/07/24 09:20:55;;;;;;;1.58;1.00;;;22.50;95.00;;;;;;5047441;28;20036;-68
2022/07/24 09:23:21;;;;;;;1.92;1.08;;;22.60;95.90;;;;;;5034204;28;20518;-70
2022/07/24 09:25:52;;;;;;;4.63;1.10;;;22.70;95.90;;;;;;5061534;28;20040;-71
2022/07/24 09:28:19;;;;;;;2.08;1.00;;;22.70;94.80;;;;;;5037965;28;20052;-72
2022/07/24 09:30:46;;;;;;;1.52;0.85;;;22.80;95.00;;;;;;5029180;28;20039;-68
2022/07/24 09:33:11;;;;;;;3.25;0.65;;;22.90;94.90;;;;;;5061036;28;20045;-70
2022/07/24 09:35:57;;;;;;;1.83;0.90;;;22.90;94.90;;;;;;5042458;28;20045;-70
2022/07/24 09:38:24;;;;;;;2.13;1.00;;;22.90;93.50;;;;;;5025043;28;20046;-70
2022/07/24 09:40:52;;;;;;;2.20;0.90;;;23.00;94.50;;;;;;5041851;28;20042;-70
2022/07/24 09:43:29;;;;;;;2.35;0.90;;;23.00;94.20;;;;;;5046311;28;20051;-70
2022/07/24 09:46:08;;;;;;;2.10;1.10;;;23.00;94.10;;;;;;5042913;28;20037;-70
2022/07/24 09:48:34;;;;;;;1.75;0.80;;;23.00;92.80;;;;;;5043611;28;20632;-70
2022/07/24 09:51:12;;;;;;;2.53;1.35;;;23.00;93.50;;;;;;5037545;28;20049;-70
2022/07/24 09:53:39;;;;;;;1.98;1.00;;;23.10;91.50;;;;;;5039537;28;20049;-70
2022/07/24 09:56:11;;;;;;;2.35;1.05;;;23.10;92.60;;;;;;5044347;28;20502;-70
2022/07/24 09:58:46;;;;;;;1.95;1.00;;;23.20;92.50;;;;;;5039823;28;20431;-70
2022/07/24 10:01:14;;;;;;;1.83;1.10;;;23.20;92.10;;;;;;5042439;28;20398;-70
2022/07/24 10:03:41;;;;;;;1.67;0.93;;;23.20;92.60;;;;;;5030651;28;20041;-70
2022/07/24 10:06:17;;;;;;;1.90;0.90;;;23.20;92.50;;;;;;5049132;28;20048;-70
2022/07/24 10:08:44;;;;;;;3.38;1.23;;;23.20;91.80;;;;;;5041406;28;20410;-70
2022/07/24 10:11:11;;;;;;;2.28;1.30;;;23.20;92.00;;;;;;5041237;28;20418;-70
2022/07/24 10:13:37;;;;;;;1.63;0.90;;;23.30;92.00;;;;;;5045855;28;20469;-70
2022/07/24 10:16:12;;;;;;;2.25;1.00;;;23.30;91.50;;;;;;5045257;28;20051;-70
2022/07/24 10:18:48;;;;;;;;;;;23.30;90.50;;;;;;5045581;28;20064;-70
2022/07/24 10:21:19;;;;;;;1.88;1.08;;;23.40;90.30;;;;;;5026141;28;19921;-70
2022/07/24 10:24:05;;;;;;;2.20;1.15;;;23.40;91.00;;;;;;5044235;28;20597;-70
2022/07/24 10:26:58;;;;;;;2.00;0.88;;;23.40;90.80;;;;;;5032000;28;20087;-70
2022/07/24 10:29:24;;;;;;;1.70;0.90;;;23.50;91.30;;;;;;5045781;28;20045;-70
2022/07/24 10:31:51;;;;;;;1.45;0.82;;;23.60;91.40;;;;;;5046418;28;20281;-70
2022/07/24 10:34:25;;;;;;;3.92;1.30;;;23.70;91.20;;;;;;5041300;28;20620;-70
2022/07/24 10:37:05;;;;;;;1.55;1.00;;;23.70;90.70;;;;;;5040839;28;20057;-70
2022/07/24 10:39:57;;;;;;;2.38;1.10;;;23.70;90.90;;;;;;5044512;28;20045;-70
2022/07/24 10:42:23;;;;;;;1.90;1.00;;;23.70;89.90;;;;;;5043793;28;20112;-70
2022/07/24 10:45:22;;;;;;;1.90;0.70;;;23.80;90.50;;;;;;5033778;28;20072;-69
2022/07/24 10:47:48;;;;;;;1.98;1.20;;;23.80;87.10;;;;;;5021646;28;20044;-71
2022/07/24 10:50:17;;;;;;;1.67;0.88;;;23.90;90.50;;;;;;5045272;28;20044;-71
2022/07/24 10:52:42;;;;;;;2.30;1.00;;;23.90;90.60;;;;;;5024528;28;20075;-70
2022/07/24 10:55:33;;;;;;;4.43;1.23;;;23.90;90.30;;;;;;5046493;28;20068;-71
2022/07/24 10:58:02;;;;;;;1.67;0.80;;;23.90;87.90;;;;;;5040346;28;20045;-71
2022/07/24 11:00:43;;;;;;;1.67;1.00;;;23.90;90.20;;;;;;5040035;28;20749;-71
2022/07/24 11:03:26;;;;;;;1.58;0.95;;;23.80;88.90;;;;;;5040175;28;20127;-70
2022/07/24 11:06:09;;;;;;;2.33;1.02;;;24.00;89.80;;;;;;5046426;28;20037;-72
2022/07/24 11:08:39;;;;;;;1.17;0.70;;;24.10;88.20;;;;;;5026024;28;20082;-71
2022/07/24 11:11:08;;;;;;;2.10;1.00;;;24.30;88.70;;;;;;5045308;28;20048;-72
2022/07/24 11:13:33;;;;;;;1.95;0.90;;;24.30;88.80;;;;;;5046043;28;20052;-71
2022/07/24 11:16:17;;;;;;;1.73;1.00;;;24.40;88.70;;;;;;5042167;28;20048;-71
2022/07/24 11:18:52;;;;;;;2.10;1.08;;;24.30;85.00;;;;;;5046659;28;20064;-71
2022/07/24 11:21:35;;;;;;;2.40;1.02;;;24.20;87.60;;;;;;5045634;28;20080;-71
2022/07/24 11:24:25;;;;;;;1.98;1.00;;;24.20;89.50;;;;;;5035085;28;20069;-71
2022/07/24 11:26:56;;;;;;;1.98;0.93;;;24.20;88.10;;;;;;5057044;28;20029;-72
2022/07/24 11:29:26;;;;;;;1.65;0.98;;;24.30;90.00;;;;;;5046074;28;20122;-70
2022/07/24 11:32:10;;;;;;;2.40;1.40;;;24.40;90.00;;;;;;5046827;28;20040;-71
2022/07/24 11:34:37;;;;;;;1.85;1.10;;;24.40;87.10;;;;;;5045571;28;20045;-71
2022/07/24 11:37:06;;;;;;;2.00;1.30;;;24.30;88.80;;;;;;5060097;28;20044;-71
2022/07/24 11:39:35;;;;;;;1.33;0.73;;;24.40;89.00;;;;;;5029266;28;20041;-71
2022/07/24 11:42:04;;;;;;;1.48;0.77;;;24.40;88.90;;;;;;5044487;28;20037;-71
2022/07/24 11:44:31;;;;;;;1.45;0.95;;;24.50;87.50;;;;;;5045278;28;20043;-71
2022/07/24 11:46:59;;;;;;;2.25;0.80;;;24.60;87.50;;;;;;5028122;28;20037;-71
2022/07/24 11:49:26;;;;;;;1.85;0.88;;;24.60;86.30;;;;;;5048006;28;20044;-71
2022/07/24 11:51:53;;;;;;;1.50;0.77;;;24.50;86.60;;;;;;5040227;28;20130;-71
2022/07/24 11:54:27;;;;;;;2.42;0.90;;;24.50;86.60;;;;;;5048273;28;20041;-72
2022/07/24 11:56:55;;;;;;;2.20;1.10;;;24.50;86.20;;;;;;5042756;28;20042;-71
2022/07/24 11:59:22;;;;;;;1.25;0.70;;;24.50;86.70;;;;;;5047271;28;20048;-71
2022/07/24 12:01:48;;;;;;;1.92;0.80;;;24.50;86.50;;;;;;5040693;28;20041;-71
2022/07/24 12:04:20;;;;;;;1.63;0.95;;;24.60;86.60;;;;;;5045371;28;20036;-72
2022/07/24 12:06:46;;;;;;;1.73;0.88;;;24.60;83.40;;;;;;5045563;28;20044;-70
2022/07/24 12:09:12;;;;;;;2.08;0.90;;;24.60;85.00;;;;;;5039049;28;20367;-70
2022/07/24 12:11:38;;;;;;;2.92;0.90;;;24.70;85.10;;;;;;5046876;28;20048;-70
2022/07/24 12:14:17;;;;;;;1.70;0.80;;;24.70;84.60;;;;;;5044933;28;20080;-70
2022/07/24 12:16:44;;;;;;;1.10;0.63;;;24.70;81.50;;;;;;5047856;28;20037;-70
2022/07/24 12:19:18;;;;;;;1.48;0.70;;;24.80;83.60;;;;;;5042008;28;20122;-70
2022/07/24 12:21:45;;;;;;;2.00;0.75;;;24.80;79.80;;;;;;5048088;28;20040;-70
2022/07/24 12:24:12;;;;;;;2.42;0.95;;;24.90;80.60;;;;;;5039486;28;20055;-70
2022/07/24 12:26:54;;;;;;;1.40;0.80;;;24.90;80.50;;;;;;5041471;28;20055;-70
2022/07/24 12:29:20;;;;;;;1.73;0.82;;;24.90;75.90;;;;;;5043220;28;20121;-70
2022/07/24 12:31:46;;;;;;;1.30;0.80;;;25.00;79.90;;;;;;5040284;28;20048;-70
2022/07/24 12:34:12;;;;;;;2.13;0.88;;;24.90;79.30;;;;;;5041145;28;20099;-70
2022/07/24 12:36:39;;;;;;;2.10;0.70;;;25.00;80.00;;;;;;5039901;28;20037;-70
2022/07/24 12:39:05;;;;;;;1.80;0.93;;;25.00;80.10;;;;;;5036842;28;20161;-70
2022/07/24 12:41:39;;;;;;;1.60;0.98;;;24.90;79.70;;;;;;5032152;28;20040;-70
2022/07/24 12:44:05;;;;;;;1.27;0.70;;;24.90;80.10;;;;;;5043762;28;20902;-70
2022/07/24 12:46:32;;;;;;;3.30;0.93;;;24.90;79.80;;;;;;5035572;28;20040;-70
2022/07/24 12:48:58;;;;;;;1.48;0.90;;;25.00;79.70;;;;;;5038332;28;20049;-70